sensor_id;sensor_type;location;lat;lon;timestamp;P1;durP1;ratioP1;P2;durP2;ratioP2
56477;SDS011;42382;53.210;5.772;2023-09-19T00:01:41;10.48;;;1.00;;
56477;SDS011;42382;53.210;5.772;2023-09-19T00:04:10;10.10;;;1.00;;
56477;SDS011;42382;53.210;5.772;2023-09-19T00:06:37;16.10;;;2.47;;
56477;SDS011;42382;53.210;5.772;2023-09-19T00:09:04;8.52;;;2.05;;
56477;SDS011;42382;53.210;5.772;2023-09-19T00:11:29;15.15;;;1.27;;
56477;SDS011;42382;53.210;5.772;2023-09-19T00:13:56;8.77;;;1.65;;
56477;SDS011;42382;53.210;5.772;2023-09-19T00:16:24;14.18;;;1.70;;
56477;SDS011;42382;53.210;5.772;2023-09-19T00:18:50;11.00;;;1.73;;
56477;SDS011;42382;53.210;5.772;2023-09-19T00:21:16;11.27;;;1.40;;
56477;SDS011;42382;53.210;5.772;2023-09-19T00:23:42;6.30;;;1.20;;
56477;SDS011;42382;53.210;5.772;2023-09-19T00:26:07;7.43;;;1.35;;
56477;SDS011;42382;53.210;5.772;2023-09-19T00:28:33;11.45;;;1.15;;
56477;SDS011;42382;53.210;5.772;2023-09-19T00:31:00;13.32;;;1.33;;
56477;SDS011;42382;53.210;5.772;2023-09-19T00:33:27;13.93;;;1.92;;
56477;SDS011;42382;53.210;5.772;2023-09-19T00:35:54;8.18;;;1.02;;
56477;SDS011;42382;53.210;5.772;2023-09-19T00:38:22;12.48;;;1.88;;
56477;SDS011;42382;53.210;5.772;2023-09-19T00:40:51;17.70;;;1.40;;
56477;SDS011;42382;53.210;5.772;2023-09-19T00:43:18;9.13;;;0.90;;
56477;SDS011;42382;53.210;5.772;2023-09-19T00:45:45;11.90;;;1.17;;
56477;SDS011;42382;53.210;5.772;2023-09-19T00:48:16;11.55;;;1.33;;
56477;SDS011;42382;53.210;5.772;2023-09-19T00:50:42;5.07;;;0.60;;
56477;SDS011;42382;53.210;5.772;2023-09-19T00:53:09;13.23;;;1.23;;
56477;SDS011;42382;53.210;5.772;2023-09-19T00:55:38;9.32;;;0.73;;
56477;SDS011;42382;53.210;5.772;2023-09-19T00:58:05;9.95;;;1.30;;
56477;SDS011;42382;53.210;5.772;2023-09-19T01:00:31;9.70;;;0.90;;
56477;SDS011;42382;53.210;5.772;2023-09-19T01:02:59;11.05;;;1.25;;
56477;SDS011;42382;53.210;5.772;2023-09-19T01:05:28;10.98;;;1.92;;
56477;SDS011;42382;53.210;5.772;2023-09-19T01:07:55;10.18;;;1.30;;
56477;SDS011;42382;53.210;5.772;2023-09-19T01:10:20;6.53;;;0.93;;
56477;SDS011;42382;53.210;5.772;2023-09-19T01:15:55;10.68;;;1.48;;
56477;SDS011;42382;53.210;5.772;2023-09-19T01:30:13;6.75;;;1.15;;
56477;SDS011;42382;53.210;5.772;2023-09-19T01:32:42;12.10;;;1.30;;
56477;SDS011;42382;53.210;5.772;2023-09-19T01:35:08;6.18;;;0.80;;
56477;SDS011;42382;53.210;5.772;2023-09-19T01:37:37;11.30;;;1.70;;
56477;SDS011;42382;53.210;5.772;2023-09-19T01:40:07;5.50;;;0.52;;
56477;SDS011;42382;53.210;5.772;2023-09-19T01:43:38;15.60;;;1.40;;
56477;SDS011;42382;53.210;5.772;2023-09-19T01:45:40;7.68;;;1.00;;
56477;SDS011;42382;53.210;5.772;2023-09-19T01:51:00;11.52;;;1.38;;
56477;SDS011;42382;53.210;5.772;2023-09-19T01:53:35;7.80;;;0.70;;
56477;SDS011;42382;53.210;5.772;2023-09-19T01:56:05;13.43;;;1.83;;
56477;SDS011;42382;53.210;5.772;2023-09-19T01:58:39;6.60;;;0.63;;
56477;SDS011;42382;53.210;5.772;2023-09-19T02:01:08;9.32;;;1.10;;
56477;SDS011;42382;53.210;5.772;2023-09-19T02:03:38;7.18;;;0.93;;
56477;SDS011;42382;53.210;5.772;2023-09-19T02:06:04;5.75;;;0.60;;
56477;SDS011;42382;53.210;5.772;2023-09-19T02:08:35;7.47;;;0.90;;
56477;SDS011;42382;53.210;5.772;2023-09-19T02:11:01;5.60;;;0.45;;
56477;SDS011;42382;53.210;5.772;2023-09-19T02:13:27;8.23;;;0.60;;
56477;SDS011;42382;53.210;5.772;2023-09-19T02:15:53;22.35;;;1.42;;
56477;SDS011;42382;53.210;5.772;2023-09-19T02:18:19;3.45;;;0.60;;
56477;SDS011;42382;53.210;5.772;2023-09-19T02:20:45;8.80;;;1.27;;
56477;SDS011;42382;53.210;5.772;2023-09-19T02:23:11;14.38;;;2.00;;
56477;SDS011;42382;53.210;5.772;2023-09-19T02:25:37;11.93;;;1.40;;
56477;SDS011;42382;53.210;5.772;2023-09-19T02:28:04;6.72;;;0.93;;
56477;SDS011;42382;53.210;5.772;2023-09-19T02:30:30;7.90;;;1.00;;
56477;SDS011;42382;53.210;5.772;2023-09-19T02:32:56;7.05;;;1.00;;
56477;SDS011;42382;53.210;5.772;2023-09-19T02:35:22;11.52;;;1.83;;
56477;SDS011;42382;53.210;5.772;2023-09-19T02:37:48;10.48;;;0.80;;
56477;SDS011;42382;53.210;5.772;2023-09-19T02:40:14;13.38;;;1.38;;
56477;SDS011;42382;53.210;5.772;2023-09-19T02:42:53;8.38;;;0.80;;
56477;SDS011;42382;53.210;5.772;2023-09-19T02:45:20;9.68;;;0.73;;
56477;SDS011;42382;53.210;5.772;2023-09-19T02:47:46;7.95;;;0.88;;
56477;SDS011;42382;53.210;5.772;2023-09-19T02:50:13;9.23;;;1.02;;
56477;SDS011;42382;53.210;5.772;2023-09-19T02:52:41;6.32;;;1.10;;
56477;SDS011;42382;53.210;5.772;2023-09-19T02:55:13;10.85;;;1.23;;
56477;SDS011;42382;53.210;5.772;2023-09-19T02:57:52;8.85;;;0.88;;
56477;SDS011;42382;53.210;5.772;2023-09-19T03:00:22;6.28;;;0.93;;
56477;SDS011;42382;53.210;5.772;2023-09-19T03:02:49;5.40;;;0.57;;
56477;SDS011;42382;53.210;5.772;2023-09-19T03:05:19;5.43;;;0.88;;
56477;SDS011;42382;53.210;5.772;2023-09-19T03:07:46;9.32;;;1.00;;
56477;SDS011;42382;53.210;5.772;2023-09-19T03:10:15;8.55;;;0.88;;
56477;SDS011;42382;53.210;5.772;2023-09-19T03:12:41;6.20;;;0.68;;
56477;SDS011;42382;53.210;5.772;2023-09-19T03:15:07;8.40;;;1.20;;
56477;SDS011;42382;53.210;5.772;2023-09-19T03:17:36;4.70;;;0.88;;
56477;SDS011;42382;53.210;5.772;2023-09-19T03:20:02;7.03;;;0.73;;
56477;SDS011;42382;53.210;5.772;2023-09-19T03:22:33;7.05;;;0.60;;
56477;SDS011;42382;53.210;5.772;2023-09-19T03:24:59;12.88;;;1.50;;
56477;SDS011;42382;53.210;5.772;2023-09-19T03:27:25;6.03;;;0.90;;
56477;SDS011;42382;53.210;5.772;2023-09-19T03:29:52;9.30;;;0.82;;
56477;SDS011;42382;53.210;5.772;2023-09-19T03:32:18;8.77;;;0.77;;
56477;SDS011;42382;53.210;5.772;2023-09-19T03:34:44;8.07;;;1.20;;
56477;SDS011;42382;53.210;5.772;2023-09-19T03:37:13;7.22;;;0.52;;
56477;SDS011;42382;53.210;5.772;2023-09-19T03:39:39;15.15;;;1.42;;
56477;SDS011;42382;53.210;5.772;2023-09-19T03:42:05;8.43;;;1.10;;
56477;SDS011;42382;53.210;5.772;2023-09-19T03:44:32;6.90;;;0.93;;
56477;SDS011;42382;53.210;5.772;2023-09-19T03:46:57;11.00;;;1.55;;
56477;SDS011;42382;53.210;5.772;2023-09-19T03:49:23;9.07;;;1.25;;
56477;SDS011;42382;53.210;5.772;2023-09-19T03:51:48;11.45;;;1.20;;
56477;SDS011;42382;53.210;5.772;2023-09-19T03:54:14;9.25;;;1.52;;
56477;SDS011;42382;53.210;5.772;2023-09-19T03:56:41;8.75;;;1.10;;
56477;SDS011;42382;53.210;5.772;2023-09-19T03:59:07;10.55;;;1.48;;
56477;SDS011;42382;53.210;5.772;2023-09-19T04:01:34;10.43;;;0.98;;
56477;SDS011;42382;53.210;5.772;2023-09-19T04:04:00;10.20;;;0.90;;
56477;SDS011;42382;53.210;5.772;2023-09-19T04:06:33;9.27;;;0.90;;
56477;SDS011;42382;53.210;5.772;2023-09-19T04:09:02;9.15;;;1.40;;
56477;SDS011;42382;53.210;5.772;2023-09-19T04:11:29;13.98;;;1.75;;
56477;SDS011;42382;53.210;5.772;2023-09-19T04:13:55;12.75;;;1.73;;
56477;SDS011;42382;53.210;5.772;2023-09-19T04:16:21;7.13;;;0.90;;
56477;SDS011;42382;53.210;5.772;2023-09-19T04:18:47;4.30;;;0.80;;
56477;SDS011;42382;53.210;5.772;2023-09-19T04:21:12;9.82;;;1.38;;
56477;SDS011;42382;53.210;5.772;2023-09-19T04:23:38;6.97;;;0.77;;
56477;SDS011;42382;53.210;5.772;2023-09-19T04:26:03;11.18;;;1.20;;
56477;SDS011;42382;53.210;5.772;2023-09-19T04:28:32;10.23;;;1.20;;
56477;SDS011;42382;53.210;5.772;2023-09-19T04:30:59;7.78;;;0.85;;
56477;SDS011;42382;53.210;5.772;2023-09-19T04:33:25;13.77;;;1.42;;
56477;SDS011;42382;53.210;5.772;2023-09-19T04:35:54;10.02;;;1.42;;
56477;SDS011;42382;53.210;5.772;2023-09-19T04:38:21;9.30;;;0.95;;
56477;SDS011;42382;53.210;5.772;2023-09-19T04:40:47;8.13;;;1.45;;
56477;SDS011;42382;53.210;5.772;2023-09-19T04:43:12;12.48;;;1.27;;
56477;SDS011;42382;53.210;5.772;2023-09-19T04:45:38;5.40;;;1.10;;
56477;SDS011;42382;53.210;5.772;2023-09-19T04:48:05;10.02;;;0.73;;
56477;SDS011;42382;53.210;5.772;2023-09-19T04:50:33;7.20;;;1.02;;
56477;SDS011;42382;53.210;5.772;2023-09-19T04:53:00;9.57;;;1.20;;
56477;SDS011;42382;53.210;5.772;2023-09-19T04:55:29;10.30;;;1.25;;
56477;SDS011;42382;53.210;5.772;2023-09-19T04:57:55;11.55;;;2.03;;
56477;SDS011;42382;53.210;5.772;2023-09-19T05:00:21;10.65;;;1.52;;
56477;SDS011;42382;53.210;5.772;2023-09-19T05:02:52;9.25;;;0.85;;
56477;SDS011;42382;53.210;5.772;2023-09-19T05:05:21;7.32;;;0.93;;
56477;SDS011;42382;53.210;5.772;2023-09-19T05:07:48;11.00;;;3.60;;
56477;SDS011;42382;53.210;5.772;2023-09-19T05:10:15;9.27;;;2.10;;
56477;SDS011;42382;53.210;5.772;2023-09-19T05:12:43;9.93;;;1.15;;
56477;SDS011;42382;53.210;5.772;2023-09-19T05:15:12;7.63;;;0.85;;
56477;SDS011;42382;53.210;5.772;2023-09-19T05:17:39;12.13;;;1.83;;
56477;SDS011;42382;53.210;5.772;2023-09-19T05:20:05;14.63;;;1.63;;
56477;SDS011;42382;53.210;5.772;2023-09-19T05:22:38;10.13;;;1.05;;
56477;SDS011;42382;53.210;5.772;2023-09-19T05:25:06;7.13;;;0.85;;
56477;SDS011;42382;53.210;5.772;2023-09-19T05:27:32;12.90;;;2.22;;
56477;SDS011;42382;53.210;5.772;2023-09-19T05:29:58;7.28;;;1.50;;
56477;SDS011;42382;53.210;5.772;2023-09-19T05:32:24;11.98;;;1.35;;
56477;SDS011;42382;53.210;5.772;2023-09-19T05:34:50;10.90;;;1.90;;
56477;SDS011;42382;53.210;5.772;2023-09-19T05:37:21;9.05;;;0.70;;
56477;SDS011;42382;53.210;5.772;2023-09-19T05:39:47;11.77;;;1.77;;
56477;SDS011;42382;53.210;5.772;2023-09-19T05:42:13;9.02;;;1.17;;
56477;SDS011;42382;53.210;5.772;2023-09-19T05:44:39;13.63;;;1.20;;
56477;SDS011;42382;53.210;5.772;2023-09-19T05:47:04;11.93;;;1.67;;
56477;SDS011;42382;53.210;5.772;2023-09-19T05:49:30;8.52;;;1.30;;
56477;SDS011;42382;53.210;5.772;2023-09-19T05:51:56;15.63;;;1.67;;
56477;SDS011;42382;53.210;5.772;2023-09-19T05:54:24;10.65;;;2.00;;
56477;SDS011;42382;53.210;5.772;2023-09-19T05:56:49;8.27;;;1.42;;
56477;SDS011;42382;53.210;5.772;2023-09-19T05:59:18;6.20;;;1.05;;
56477;SDS011;42382;53.210;5.772;2023-09-19T06:01:44;11.77;;;1.67;;
56477;SDS011;42382;53.210;5.772;2023-09-19T06:04:10;11.32;;;1.38;;
56477;SDS011;42382;53.210;5.772;2023-09-19T06:06:36;10.02;;;1.30;;
56477;SDS011;42382;53.210;5.772;2023-09-19T06:09:05;13.02;;;1.50;;
56477;SDS011;42382;53.210;5.772;2023-09-19T06:11:34;6.82;;;0.93;;
56477;SDS011;42382;53.210;5.772;2023-09-19T06:14:00;11.20;;;1.30;;
56477;SDS011;42382;53.210;5.772;2023-09-19T06:16:27;9.75;;;1.20;;
56477;SDS011;42382;53.210;5.772;2023-09-19T06:18:54;6.60;;;1.10;;
56477;SDS011;42382;53.210;5.772;2023-09-19T06:21:21;11.30;;;1.17;;
56477;SDS011;42382;53.210;5.772;2023-09-19T06:23:48;15.13;;;1.77;;
56477;SDS011;42382;53.210;5.772;2023-09-19T06:26:13;11.35;;;1.20;;
56477;SDS011;42382;53.210;5.772;2023-09-19T06:28:39;12.32;;;1.13;;
56477;SDS011;42382;53.210;5.772;2023-09-19T06:31:06;9.20;;;1.00;;
56477;SDS011;42382;53.210;5.772;2023-09-19T06:33:35;8.52;;;0.85;;
56477;SDS011;42382;53.210;5.772;2023-09-19T06:36:04;10.82;;;1.20;;
56477;SDS011;42382;53.210;5.772;2023-09-19T06:38:30;10.00;;;1.27;;
56477;SDS011;42382;53.210;5.772;2023-09-19T06:40:58;15.80;;;1.05;;
56477;SDS011;42382;53.210;5.772;2023-09-19T06:43:24;9.95;;;1.38;;
56477;SDS011;42382;53.210;5.772;2023-09-19T06:45:49;10.93;;;1.50;;
56477;SDS011;42382;53.210;5.772;2023-09-19T06:48:16;17.45;;;1.55;;
56477;SDS011;42382;53.210;5.772;2023-09-19T06:50:43;9.50;;;1.33;;
56477;SDS011;42382;53.210;5.772;2023-09-19T06:53:09;10.60;;;1.88;;
56477;SDS011;42382;53.210;5.772;2023-09-19T06:55:35;10.23;;;0.93;;
56477;SDS011;42382;53.210;5.772;2023-09-19T06:58:01;9.85;;;1.23;;
56477;SDS011;42382;53.210;5.772;2023-09-19T07:00:27;10.55;;;0.70;;
56477;SDS011;42382;53.210;5.772;2023-09-19T07:02:57;9.18;;;1.15;;
56477;SDS011;42382;53.210;5.772;2023-09-19T07:05:31;10.57;;;1.40;;
56477;SDS011;42382;53.210;5.772;2023-09-19T07:07:58;11.77;;;1.23;;
56477;SDS011;42382;53.210;5.772;2023-09-19T07:10:25;9.73;;;0.93;;
56477;SDS011;42382;53.210;5.772;2023-09-19T07:12:57;6.47;;;0.80;;
56477;SDS011;42382;53.210;5.772;2023-09-19T07:15:24;11.45;;;1.13;;
56477;SDS011;42382;53.210;5.772;2023-09-19T07:17:50;10.07;;;1.50;;
56477;SDS011;42382;53.210;5.772;2023-09-19T07:20:18;9.38;;;1.17;;
56477;SDS011;42382;53.210;5.772;2023-09-19T07:22:44;12.57;;;1.27;;
56477;SDS011;42382;53.210;5.772;2023-09-19T07:25:09;9.32;;;1.30;;
56477;SDS011;42382;53.210;5.772;2023-09-19T07:27:35;10.15;;;1.10;;
56477;SDS011;42382;53.210;5.772;2023-09-19T07:30:01;10.82;;;1.88;;
56477;SDS011;42382;53.210;5.772;2023-09-19T07:32:26;10.77;;;1.40;;
56477;SDS011;42382;53.210;5.772;2023-09-19T07:34:52;10.18;;;1.02;;
56477;SDS011;42382;53.210;5.772;2023-09-19T07:37:19;13.90;;;1.85;;
56477;SDS011;42382;53.210;5.772;2023-09-19T07:39:46;9.95;;;1.08;;
56477;SDS011;42382;53.210;5.772;2023-09-19T07:42:11;8.90;;;1.52;;
56477;SDS011;42382;53.210;5.772;2023-09-19T07:44:43;11.50;;;1.77;;
56477;SDS011;42382;53.210;5.772;2023-09-19T07:47:12;8.35;;;1.23;;
56477;SDS011;42382;53.210;5.772;2023-09-19T07:49:39;10.35;;;1.33;;
56477;SDS011;42382;53.210;5.772;2023-09-19T07:52:04;10.25;;;1.58;;
56477;SDS011;42382;53.210;5.772;2023-09-19T07:54:30;8.73;;;1.58;;
56477;SDS011;42382;53.210;5.772;2023-09-19T07:57:00;10.52;;;1.40;;
56477;SDS011;42382;53.210;5.772;2023-09-19T07:59:26;9.20;;;1.65;;
56477;SDS011;42382;53.210;5.772;2023-09-19T08:01:52;11.40;;;1.67;;
56477;SDS011;42382;53.210;5.772;2023-09-19T08:04:19;13.07;;;1.48;;
56477;SDS011;42382;53.210;5.772;2023-09-19T08:06:45;12.80;;;1.27;;
56477;SDS011;42382;53.210;5.772;2023-09-19T08:09:10;7.13;;;1.40;;
56477;SDS011;42382;53.210;5.772;2023-09-19T08:11:37;9.52;;;1.63;;
56477;SDS011;42382;53.210;5.772;2023-09-19T08:14:04;14.32;;;1.92;;
56477;SDS011;42382;53.210;5.772;2023-09-19T08:16:33;8.60;;;1.27;;
56477;SDS011;42382;53.210;5.772;2023-09-19T08:18:59;10.63;;;1.38;;
56477;SDS011;42382;53.210;5.772;2023-09-19T08:21:25;9.10;;;1.17;;
56477;SDS011;42382;53.210;5.772;2023-09-19T08:23:54;8.75;;;1.38;;
56477;SDS011;42382;53.210;5.772;2023-09-19T08:26:20;9.82;;;1.13;;
56477;SDS011;42382;53.210;5.772;2023-09-19T08:28:46;10.90;;;1.52;;
56477;SDS011;42382;53.210;5.772;2023-09-19T08:31:13;13.32;;;1.77;;
56477;SDS011;42382;53.210;5.772;2023-09-19T08:33:39;17.15;;;1.63;;
56477;SDS011;42382;53.210;5.772;2023-09-19T08:36:06;10.32;;;1.25;;
56477;SDS011;42382;53.210;5.772;2023-09-19T08:38:33;8.70;;;1.40;;
56477;SDS011;42382;53.210;5.772;2023-09-19T08:41:00;8.13;;;1.95;;
56477;SDS011;42382;53.210;5.772;2023-09-19T08:43:26;12.27;;;1.70;;
56477;SDS011;42382;53.210;5.772;2023-09-19T08:46:02;10.18;;;1.98;;
56477;SDS011;42382;53.210;5.772;2023-09-19T08:48:31;6.95;;;1.13;;
56477;SDS011;42382;53.210;5.772;2023-09-19T08:51:03;8.75;;;1.50;;
56477;SDS011;42382;53.210;5.772;2023-09-19T08:56:14;11.55;;;2.00;;
56477;SDS011;42382;53.210;5.772;2023-09-19T08:58:47;8.88;;;2.25;;
56477;SDS011;42382;53.210;5.772;2023-09-19T09:01:20;9.70;;;1.65;;
56477;SDS011;42382;53.210;5.772;2023-09-19T09:03:53;12.35;;;2.20;;
56477;SDS011;42382;53.210;5.772;2023-09-19T09:06:20;9.48;;;1.48;;
56477;SDS011;42382;53.210;5.772;2023-09-19T09:08:46;8.82;;;1.88;;
56477;SDS011;42382;53.210;5.772;2023-09-19T09:11:15;11.27;;;1.38;;
56477;SDS011;42382;53.210;5.772;2023-09-19T09:13:43;10.10;;;1.50;;
56477;SDS011;42382;53.210;5.772;2023-09-19T09:16:12;12.73;;;2.00;;
56477;SDS011;42382;53.210;5.772;2023-09-19T09:18:39;9.85;;;1.88;;
56477;SDS011;42382;53.210;5.772;2023-09-19T09:21:06;10.00;;;1.63;;
56477;SDS011;42382;53.210;5.772;2023-09-19T09:23:31;8.85;;;1.67;;
56477;SDS011;42382;53.210;5.772;2023-09-19T09:25:58;7.45;;;1.58;;
56477;SDS011;42382;53.210;5.772;2023-09-19T09:28:28;11.85;;;1.60;;
56477;SDS011;42382;53.210;5.772;2023-09-19T09:30:56;12.77;;;2.08;;
56477;SDS011;42382;53.210;5.772;2023-09-19T09:33:23;9.52;;;1.88;;
56477;SDS011;42382;53.210;5.772;2023-09-19T09:35:53;10.15;;;1.73;;
56477;SDS011;42382;53.210;5.772;2023-09-19T09:38:44;13.57;;;2.28;;
56477;SDS011;42382;53.210;5.772;2023-09-19T09:41:11;7.78;;;1.38;;
56477;SDS011;42382;53.210;5.772;2023-09-19T09:43:41;14.52;;;2.10;;
56477;SDS011;42382;53.210;5.772;2023-09-19T09:48:47;8.88;;;1.45;;
56477;SDS011;42382;53.210;5.772;2023-09-19T09:51:33;8.73;;;1.63;;
56477;SDS011;42382;53.210;5.772;2023-09-19T09:57:04;13.57;;;1.88;;
56477;SDS011;42382;53.210;5.772;2023-09-19T09:59:47;14.07;;;2.22;;
56477;SDS011;42382;53.210;5.772;2023-09-19T10:02:42;10.40;;;1.98;;
56477;SDS011;42382;53.210;5.772;2023-09-19T10:05:14;11.13;;;1.58;;
56477;SDS011;42382;53.210;5.772;2023-09-19T10:07:53;13.48;;;2.58;;
56477;SDS011;42382;53.210;5.772;2023-09-19T10:10:34;10.23;;;2.00;;
56477;SDS011;42382;53.210;5.772;2023-09-19T10:15:37;13.10;;;1.88;;
56477;SDS011;42382;53.210;5.772;2023-09-19T10:18:06;12.07;;;1.50;;
56477;SDS011;42382;53.210;5.772;2023-09-19T10:20:35;18.27;;;2.22;;
56477;SDS011;42382;53.210;5.772;2023-09-19T10:23:07;15.77;;;1.90;;
56477;SDS011;42382;53.210;5.772;2023-09-19T10:25:37;12.85;;;1.75;;
56477;SDS011;42382;53.210;5.772;2023-09-19T10:28:11;12.20;;;1.80;;
56477;SDS011;42382;53.210;5.772;2023-09-19T10:30:40;11.98;;;1.58;;
56477;SDS011;42382;53.210;5.772;2023-09-19T10:33:10;11.57;;;1.77;;
56477;SDS011;42382;53.210;5.772;2023-09-19T10:35:38;9.65;;;1.88;;
56477;SDS011;42382;53.210;5.772;2023-09-19T10:38:05;9.77;;;2.05;;
56477;SDS011;42382;53.210;5.772;2023-09-19T10:40:32;12.20;;;2.47;;
56477;SDS011;42382;53.210;5.772;2023-09-19T10:43:03;8.82;;;1.77;;
56477;SDS011;42382;53.210;5.772;2023-09-19T10:45:33;15.70;;;2.65;;
56477;SDS011;42382;53.210;5.772;2023-09-19T10:48:00;16.27;;;2.10;;
56477;SDS011;42382;53.210;5.772;2023-09-19T10:50:50;11.55;;;2.35;;
56477;SDS011;42382;53.210;5.772;2023-09-19T10:53:16;12.05;;;1.67;;
56477;SDS011;42382;53.210;5.772;2023-09-19T10:55:56;17.15;;;3.60;;
56477;SDS011;42382;53.210;5.772;2023-09-19T10:58:34;14.25;;;2.45;;
56477;SDS011;42382;53.210;5.772;2023-09-19T11:01:04;15.05;;;2.55;;
56477;SDS011;42382;53.210;5.772;2023-09-19T11:03:40;13.18;;;2.72;;
56477;SDS011;42382;53.210;5.772;2023-09-19T11:06:11;14.95;;;2.45;;
56477;SDS011;42382;53.210;5.772;2023-09-19T11:11:50;13.25;;;2.10;;
56477;SDS011;42382;53.210;5.772;2023-09-19T11:30:38;13.73;;;1.80;;
56477;SDS011;42382;53.210;5.772;2023-09-19T11:33:18;17.27;;;2.92;;
56477;SDS011;42382;53.210;5.772;2023-09-19T11:43:52;11.45;;;1.98;;
56477;SDS011;42382;53.210;5.772;2023-09-19T11:46:24;14.98;;;2.85;;
56477;SDS011;42382;53.210;5.772;2023-09-19T11:48:52;19.13;;;3.00;;
56477;SDS011;42382;53.210;5.772;2023-09-19T11:51:19;12.07;;;2.40;;
56477;SDS011;42382;53.210;5.772;2023-09-19T11:53:51;16.52;;;2.90;;
56477;SDS011;42382;53.210;5.772;2023-09-19T11:56:22;14.77;;;2.85;;
56477;SDS011;42382;53.210;5.772;2023-09-19T11:58:53;15.15;;;2.53;;
56477;SDS011;42382;53.210;5.772;2023-09-19T12:03:53;13.88;;;2.55;;
56477;SDS011;42382;53.210;5.772;2023-09-19T12:06:22;10.95;;;2.50;;
56477;SDS011;42382;53.210;5.772;2023-09-19T12:08:49;13.90;;;2.25;;
56477;SDS011;42382;53.210;5.772;2023-09-19T12:11:16;11.43;;;1.67;;
56477;SDS011;42382;53.210;5.772;2023-09-19T12:13:43;9.07;;;2.00;;
56477;SDS011;42382;53.210;5.772;2023-09-19T12:16:16;9.30;;;1.15;;
56477;SDS011;42382;53.210;5.772;2023-09-19T12:18:46;11.38;;;1.90;;
56477;SDS011;42382;53.210;5.772;2023-09-19T12:21:22;10.95;;;1.88;;
56477;SDS011;42382;53.210;5.772;2023-09-19T12:26:29;7.22;;;1.30;;
56477;SDS011;42382;53.210;5.772;2023-09-19T12:28:59;10.20;;;1.33;;
56477;SDS011;42382;53.210;5.772;2023-09-19T12:31:26;9.60;;;1.17;;
56477;SDS011;42382;53.210;5.772;2023-09-19T12:33:55;9.38;;;1.20;;
56477;SDS011;42382;53.210;5.772;2023-09-19T12:36:23;11.35;;;1.42;;
56477;SDS011;42382;53.210;5.772;2023-09-19T12:38:59;11.43;;;1.70;;
56477;SDS011;42382;53.210;5.772;2023-09-19T12:41:28;9.15;;;1.20;;
56477;SDS011;42382;53.210;5.772;2023-09-19T12:43:54;9.88;;;1.40;;
56477;SDS011;42382;53.210;5.772;2023-09-19T12:46:23;10.07;;;1.98;;
56477;SDS011;42382;53.210;5.772;2023-09-19T12:49:14;11.13;;;1.90;;
56477;SDS011;42382;53.210;5.772;2023-09-19T12:51:42;10.65;;;1.75;;
56477;SDS011;42382;53.210;5.772;2023-09-19T12:54:12;9.25;;;1.33;;
56477;SDS011;42382;53.210;5.772;2023-09-19T12:56:40;12.05;;;2.05;;
56477;SDS011;42382;53.210;5.772;2023-09-19T12:59:09;10.60;;;1.90;;
56477;SDS011;42382;53.210;5.772;2023-09-19T13:01:40;5.57;;;1.63;;
56477;SDS011;42382;53.210;5.772;2023-09-19T13:04:18;8.95;;;1.73;;
56477;SDS011;42382;53.210;5.772;2023-09-19T13:09:13;9.43;;;1.45;;
56477;SDS011;42382;53.210;5.772;2023-09-19T13:11:40;12.80;;;1.77;;
56477;SDS011;42382;53.210;5.772;2023-09-19T13:14:16;8.80;;;1.60;;
56477;SDS011;42382;53.210;5.772;2023-09-19T13:19:39;8.30;;;1.55;;
56477;SDS011;42382;53.210;5.772;2023-09-19T13:25:08;7.65;;;0.90;;
56477;SDS011;42382;53.210;5.772;2023-09-19T13:27:48;8.35;;;1.17;;
56477;SDS011;42382;53.210;5.772;2023-09-19T13:30:19;8.77;;;1.80;;
56477;SDS011;42382;53.210;5.772;2023-09-19T13:32:46;10.95;;;1.60;;
56477;SDS011;42382;53.210;5.772;2023-09-19T13:35:12;13.73;;;1.73;;
56477;SDS011;42382;53.210;5.772;2023-09-19T13:37:39;10.18;;;1.30;;
56477;SDS011;42382;53.210;5.772;2023-09-19T13:40:10;9.93;;;1.15;;
56477;SDS011;42382;53.210;5.772;2023-09-19T13:42:37;8.27;;;1.40;;
56477;SDS011;42382;53.210;5.772;2023-09-19T13:45:03;12.77;;;2.33;;
56477;SDS011;42382;53.210;5.772;2023-09-19T13:47:29;7.47;;;1.30;;
56477;SDS011;42382;53.210;5.772;2023-09-19T13:49:55;10.07;;;1.67;;
56477;SDS011;42382;53.210;5.772;2023-09-19T13:52:22;9.13;;;1.77;;
56477;SDS011;42382;53.210;5.772;2023-09-19T13:54:51;7.22;;;1.73;;
56477;SDS011;42382;53.210;5.772;2023-09-19T13:57:18;6.78;;;1.08;;
56477;SDS011;42382;53.210;5.772;2023-09-19T13:59:43;9.90;;;1.67;;
56477;SDS011;42382;53.210;5.772;2023-09-19T14:02:09;13.07;;;1.90;;
56477;SDS011;42382;53.210;5.772;2023-09-19T14:04:35;10.60;;;1.35;;
56477;SDS011;42382;53.210;5.772;2023-09-19T14:07:01;9.30;;;1.98;;
56477;SDS011;42382;53.210;5.772;2023-09-19T14:09:28;14.15;;;2.00;;
56477;SDS011;42382;53.210;5.772;2023-09-19T14:11:54;13.15;;;2.42;;
56477;SDS011;42382;53.210;5.772;2023-09-19T14:14:19;11.23;;;2.28;;
56477;SDS011;42382;53.210;5.772;2023-09-19T14:16:46;13.27;;;2.20;;
56477;SDS011;42382;53.210;5.772;2023-09-19T14:19:17;11.60;;;2.42;;
56477;SDS011;42382;53.210;5.772;2023-09-19T14:21:43;13.32;;;2.17;;
56477;SDS011;42382;53.210;5.772;2023-09-19T14:24:09;13.23;;;2.33;;
56477;SDS011;42382;53.210;5.772;2023-09-19T14:26:35;14.43;;;2.55;;
56477;SDS011;42382;53.210;5.772;2023-09-19T14:29:01;11.07;;;2.33;;
56477;SDS011;42382;53.210;5.772;2023-09-19T14:31:27;15.50;;;2.75;;
56477;SDS011;42382;53.210;5.772;2023-09-19T14:33:56;10.48;;;1.98;;
56477;SDS011;42382;53.210;5.772;2023-09-19T14:36:24;13.73;;;5.60;;
56477;SDS011;42382;53.210;5.772;2023-09-19T14:38:54;15.13;;;2.40;;
56477;SDS011;42382;53.210;5.772;2023-09-19T14:41:20;17.00;;;2.78;;
56477;SDS011;42382;53.210;5.772;2023-09-19T14:43:47;15.50;;;2.60;;
56477;SDS011;42382;53.210;5.772;2023-09-19T14:46:14;20.80;;;2.92;;
56477;SDS011;42382;53.210;5.772;2023-09-19T14:48:39;26.00;;;3.00;;
56477;SDS011;42382;53.210;5.772;2023-09-19T14:51:06;14.60;;;2.15;;
56477;SDS011;42382;53.210;5.772;2023-09-19T14:53:33;13.10;;;2.28;;
56477;SDS011;42382;53.210;5.772;2023-09-19T14:56:00;15.57;;;2.05;;
56477;SDS011;42382;53.210;5.772;2023-09-19T14:58:30;12.75;;;2.33;;
56477;SDS011;42382;53.210;5.772;2023-09-19T15:01:03;17.52;;;3.17;;
56477;SDS011;42382;53.210;5.772;2023-09-19T15:03:33;17.48;;;3.00;;
56477;SDS011;42382;53.210;5.772;2023-09-19T15:06:01;16.77;;;2.70;;
56477;SDS011;42382;53.210;5.772;2023-09-19T15:08:27;16.02;;;3.15;;
56477;SDS011;42382;53.210;5.772;2023-09-19T15:10:53;16.77;;;2.40;;
56477;SDS011;42382;53.210;5.772;2023-09-19T15:13:19;18.45;;;3.35;;
56477;SDS011;42382;53.210;5.772;2023-09-19T15:15:45;20.38;;;2.97;;
56477;SDS011;42382;53.210;5.772;2023-09-19T15:18:13;14.65;;;3.28;;
56477;SDS011;42382;53.210;5.772;2023-09-19T15:20:43;15.98;;;2.38;;
56477;SDS011;42382;53.210;5.772;2023-09-19T15:23:09;16.67;;;3.03;;
56477;SDS011;42382;53.210;5.772;2023-09-19T15:25:35;18.92;;;3.05;;
56477;SDS011;42382;53.210;5.772;2023-09-19T15:28:00;17.88;;;3.40;;
56477;SDS011;42382;53.210;5.772;2023-09-19T15:30:36;28.65;;;5.43;;
56477;SDS011;42382;53.210;5.772;2023-09-19T15:33:06;22.23;;;4.57;;
56477;SDS011;42382;53.210;5.772;2023-09-19T15:35:32;20.52;;;4.00;;
56477;SDS011;42382;53.210;5.772;2023-09-19T15:37:58;17.92;;;3.85;;
56477;SDS011;42382;53.210;5.772;2023-09-19T15:40:25;31.10;;;4.60;;
56477;SDS011;42382;53.210;5.772;2023-09-19T15:42:52;25.08;;;4.38;;
56477;SDS011;42382;53.210;5.772;2023-09-19T15:45:19;21.05;;;3.80;;
56477;SDS011;42382;53.210;5.772;2023-09-19T15:47:45;22.40;;;4.40;;
56477;SDS011;42382;53.210;5.772;2023-09-19T15:50:11;26.83;;;4.30;;
56477;SDS011;42382;53.210;5.772;2023-09-19T15:52:40;21.38;;;4.05;;
56477;SDS011;42382;53.210;5.772;2023-09-19T15:55:07;20.35;;;3.58;;
56477;SDS011;42382;53.210;5.772;2023-09-19T15:57:34;17.98;;;3.33;;